Time;durP1;ratioP1;P1;durP2;ratioP2;P2;SDS_P1;SDS_P2;PMS_P1;PMS_P2;Temp;Humidity;BMP_temperature;BMP_pressure;BME280_temperature;BME280_humidity;BME280_pressure;Samples;Min_cycle;Max_cycle;Signal;HPM_P1;HPM_P2
2023/10/31 00:01:21;;;;;;;5.68;3.35;;;;;;;10.13;73.20;99093.69;5116133;28;20438;-53
2023/10/31 00:03:47;;;;;;;5.22;3.20;;;;;;;10.17;72.81;99085.25;5116373;28;20346;-52
2023/10/31 00:06:12;;;;;;;5.72;2.90;;;;;;;10.11;73.05;99093.81;5115753;28;20032;-54
2023/10/31 00:08:38;;;;;;;3.47;2.67;;;;;;;10.11;73.08;99093.81;5115557;28;20446;-53
2023/10/31 00:11:03;;;;;;;5.00;3.22;;;;;;;10.15;72.88;99107.75;5115944;28;20023;-56
2023/10/31 00:13:29;;;;;;;4.30;3.28;;;;;;;10.16;72.87;99106.75;5115997;28;20023;-49
2023/10/31 00:15:54;;;;;;;3.53;2.85;;;;;;;10.16;73.08;99106.75;5115209;28;20031;-47
2023/10/31 00:18:20;;;;;;;4.07;3.10;;;;;;;10.14;73.09;99103.38;5115773;28;20031;-50
2023/10/31 00:20:46;;;;;;;4.85;2.97;;;;;;;10.14;72.66;99120.31;5115982;27;20031;-46
2023/10/31 00:23:12;;;;;;;6.55;2.92;;;;;;;10.13;72.64;99123.97;5114700;28;20352;-48
2023/10/31 00:25:38;;;;;;;6.80;3.00;;;;;;;10.11;73.00;99120.56;5115634;28;20051;-49
2023/10/31 00:28:04;;;;;;;3.63;2.75;;;;;;;10.14;72.96;99114.94;5115264;28;20048;-48
2023/10/31 00:30:29;;;;;;;4.15;2.92;;;;;;;10.14;72.96;99116.75;5115393;28;20023;-54
2023/10/31 00:32:55;;;;;;;5.45;3.13;;;;;;;10.11;73.01;99120.56;5115556;28;20040;-53
2023/10/31 00:35:20;;;;;;;5.13;2.90;;;;;;;10.09;73.17;99119.00;5115218;28;20077;-53
2023/10/31 00:37:46;;;;;;;4.95;3.08;;;;;;;10.04;73.19;99119.41;5115651;28;20445;-56
2023/10/31 00:40:12;;;;;;;5.97;3.17;;;;;;;10.01;72.96;99114.34;5115298;28;20050;-54
2023/10/31 00:42:38;;;;;;;5.13;3.25;;;;;;;10.09;73.09;99138.56;5115100;28;20453;-53
2023/10/31 00:45:04;;;;;;;5.82;3.15;;;;;;;10.11;73.20;99146.47;5115048;28;20043;-52
2023/10/31 00:47:31;;;;;;;6.70;3.35;;;;;;;10.03;73.09;99129.28;5115316;28;20036;-52
2023/10/31 00:49:57;;;;;;;5.60;3.28;;;;;;;10.01;72.87;99147.31;5114771;27;20084;-55
2023/10/31 00:52:22;;;;;;;6.43;3.25;;;;;;;10.03;73.40;99149.81;5115093;28;20043;-53
2023/10/31 00:54:48;;;;;;;5.50;3.13;;;;;;;10.03;73.36;99161.38;5115562;28;20028;-52
2023/10/31 00:57:13;;;;;;;5.15;3.33;;;;;;;9.96;73.37;99146.00;5114363;28;20032;-54
2023/10/31 00:59:39;;;;;;;6.00;3.80;;;;;;;10.04;73.42;99152.38;5114817;28;20035;-55
2023/10/31 01:02:05;;;;;;;12.20;4.00;;;;;;;10.07;73.25;99159.25;5115000;27;20512;-54
2023/10/31 01:04:31;;;;;;;5.47;3.75;;;;;;;10.05;73.18;99167.44;5114897;28;20342;-50
2023/10/31 01:06:57;;;;;;;4.72;3.55;;;;;;;9.97;73.21;99161.06;5114500;28;20036;-54
2023/10/31 01:09:22;;;;;;;5.40;3.60;;;;;;;9.97;73.58;99166.41;5115293;28;20058;-49
2023/10/31 01:11:48;;;;;;;5.43;3.47;;;;;;;9.91;73.34;99159.78;5114625;28;20031;-53
2023/10/31 01:14:14;;;;;;;8.02;3.47;;;;;;;9.71;73.44;99137.50;5114583;28;20035;-52
2023/10/31 01:16:40;;;;;;;6.63;3.90;;;;;;;9.89;73.78;99178.66;5114723;28;20027;-55
2023/10/31 01:19:06;;;;;;;8.20;3.38;;;;;;;9.87;74.07;99182.44;5114402;28;20027;-55
2023/10/31 01:21:31;;;;;;;6.88;3.58;;;;;;;9.82;74.31;99180.16;5114420;28;20410;-53
2023/10/31 01:23:58;;;;;;;7.65;3.63;;;;;;;9.81;74.14;99185.66;5114403;28;20502;-52
2023/10/31 01:26:24;;;;;;;6.05;3.05;;;;;;;9.75;74.23;99179.00;5114273;28;20466;-52
2023/10/31 01:28:49;;;;;;;7.47;3.83;;;;;;;9.81;74.08;99191.84;5114882;28;20061;-53
2023/10/31 01:31:15;;;;;;;4.90;3.03;;;;;;;9.76;74.15;99191.38;5113741;28;20343;-53
2023/10/31 01:33:40;;;;;;;5.95;3.28;;;;;;;9.60;74.36;99171.34;5114156;28;20032;-54
2023/10/31 01:36:06;;;;;;;5.70;3.47;;;;;;;9.78;74.03;99205.47;5114223;28;20028;-55
2023/10/31 01:38:32;;;;;;;5.70;3.15;;;;;;;9.79;74.40;99201.81;5114162;28;20114;-55
2023/10/31 01:40:58;;;;;;;4.60;2.95;;;;;;;9.85;74.09;99217.31;5114216;28;20024;-52
2023/10/31 01:43:30;;;;;;;8.40;3.35;;;;;;;9.88;73.91;99208.19;5114187;28;20066;-53
2023/10/31 01:45:55;;;;;;;4.22;3.03;;;;;;;9.87;73.96;99215.34;5113683;28;20032;-52
2023/10/31 01:48:23;;;;;;;5.03;3.20;;;;;;;9.82;73.65;99222.09;5114124;28;20023;-50
2023/10/31 01:50:50;;;;;;;3.70;2.85;;;;;;;9.83;73.57;99227.28;5113174;28;20096;-52
2023/10/31 01:53:16;;;;;;;5.20;3.10;;;;;;;9.80;73.68;99224.06;5113753;28;20056;-52
2023/10/31 01:55:43;;;;;;;6.47;3.35;;;;;;;9.81;73.86;99231.94;5112639;28;20442;-53
2023/10/31 01:58:09;;;;;;;4.55;2.90;;;;;;;9.84;73.86;99237.00;5113901;28;20361;-55
2023/10/31 02:00:35;;;;;;;5.75;2.67;;;;;;;9.85;73.52;99237.88;5112516;28;20116;-51
2023/10/31 02:03:02;;;;;;;3.67;3.05;;;;;;;9.85;73.79;99238.69;5113077;28;20446;-59
2023/10/31 02:05:28;;;;;;;5.72;2.92;;;;;;;9.53;73.96;99190.75;5113144;28;20084;-52
2023/10/31 02:07:54;;;;;;;4.68;2.72;;;;;;;9.81;73.78;99253.31;5114259;28;20084;-51
2023/10/31 02:10:19;;;;;;;4.55;2.80;;;;;;;9.79;73.70;99244.59;5113382;28;20035;-53
2023/10/31 02:12:45;;;;;;;4.32;3.10;;;;;;;9.85;73.79;99252.06;5113416;28;20027;-54
2023/10/31 02:15:11;;;;;;;3.25;2.95;;;;;;;9.83;73.84;99248.69;5113589;28;20023;-55
2023/10/31 02:17:37;;;;;;;3.83;2.90;;;;;;;9.82;73.49;99257.69;5113103;28;20024;-53
2023/10/31 02:20:03;;;;;;;6.15;3.30;;;;;;;9.83;73.64;99263.91;5112954;28;20093;-55
2023/10/31 02:22:31;;;;;;;5.05;3.45;;;;;;;9.80;73.87;99266.84;5113501;28;20019;-54
2023/10/31 02:24:57;;;;;;;4.97;3.50;;;;;;;9.75;73.97;99264.56;5112881;28;20500;-51
2023/10/31 02:27:22;;;;;;;4.05;3.03;;;;;;;9.72;73.78;99278.19;5113567;28;20092;-56
2023/10/31 02:29:48;;;;;;;3.53;3.17;;;;;;;9.53;74.17;99245.00;5113123;28;20466;-55
2023/10/31 02:32:13;;;;;;;5.00;3.33;;;;;;;9.58;74.15;99264.16;5113408;28;20056;-54
2023/10/31 02:34:39;;;;;;;5.47;2.97;;;;;;;9.48;74.18;99268.63;5113400;28;20457;-55
2023/10/31 02:37:05;;;;;;;5.10;3.40;;;;;;;9.29;74.33;99270.16;5112819;28;20445;-52
2023/10/31 02:39:31;;;;;;;4.50;3.17;;;;;;;9.12;75.03;99282.28;5113308;28;20047;-51
2023/10/31 02:41:57;;;;;;;6.18;3.50;;;;;;;8.89;75.48;99244.13;5113412;28;20373;-53
2023/10/31 02:44:23;;;;;;;5.20;3.50;;;;;;;9.12;75.75;99278.75;5114067;28;20028;-50
2023/10/31 02:46:49;;;;;;;5.82;3.50;;;;;;;9.11;75.73;99291.25;5119849;28;20036;-52
2023/10/31 02:49:14;;;;;;;7.40;4.03;;;;;;;9.19;75.88;99287.97;5120320;28;20023;-51
2023/10/31 02:51:40;;;;;;;6.88;4.05;;;;;;;9.01;75.73;99251.13;5119652;27;20118;-55
2023/10/31 02:54:06;;;;;;;5.38;3.10;;;;;;;9.25;75.40;99286.56;5119276;28;20124;-55
2023/10/31 02:56:31;;;;;;;6.38;4.05;;;;;;;9.09;75.26;99260.31;5119011;28;20035;-54
2023/10/31 02:58:57;;;;;;;6.18;3.08;;;;;;;9.30;75.12;99285.22;5120094;27;20032;-51
2023/10/31 03:01:22;;;;;;;7.30;3.70;;;;;;;9.40;75.12;99298.66;5119474;27;20058;-53
2023/10/31 03:03:48;;;;;;;10.65;3.53;;;;;;;9.24;74.85;99275.06;5119859;27;20027;-52
2023/10/31 03:06:13;;;;;;;9.20;3.85;;;;;;;9.44;75.03;99307.28;5119633;27;20044;-54
2023/10/31 03:08:39;;;;;;;6.85;3.75;;;;;;;9.48;74.61;99314.03;5119749;27;20110;-54
2023/10/31 03:11:04;;;;;;;9.60;3.47;;;;;;;9.46;74.51;99305.31;5119396;27;20110;-54
2023/10/31 03:13:30;;;;;;;6.90;3.80;;;;;;;9.38;74.84;99294.41;5118964;27;20034;-55
2023/10/31 03:15:55;;;;;;;9.20;3.78;;;;;;;9.52;74.41;99320.81;5119997;28;20028;-51
2023/10/31 03:18:22;;;;;;;7.82;4.32;;;;;;;9.55;74.54;99317.88;5117811;28;20111;-54
2023/10/31 03:20:47;;;;;;;6.82;4.72;;;;;;;9.55;74.54;99323.22;5119591;27;20054;-52
2023/10/31 03:23:13;;;;;;;7.15;5.50;;;;;;;9.56;74.42;99319.59;5119663;27;20442;-52
2023/10/31 03:25:39;;;;;;;12.10;7.15;;;;;;;9.35;74.44;99279.50;5119535;27;20066;-48
2023/10/31 03:28:18;;;;;;;16.73;9.43;;;;;;;9.60;74.28;99320.19;5119482;27;20031;-51
2023/10/31 03:30:45;;;;;;;14.23;9.25;;;;;;;9.43;74.46;99327.78;5119563;27;20050;-53
2023/10/31 03:33:11;;;;;;;20.08;11.50;;;;;;;9.21;74.52;99325.22;5119116;27;20065;-55
2023/10/31 03:35:38;;;;;;;21.35;12.23;;;;;;;9.11;75.15;99325.97;5118464;28;20458;-53
2023/10/31 03:38:03;;;;;;;18.75;12.02;;;;;;;9.03;75.58;99337.28;5119457;27;20040;-54
2023/10/31 03:40:29;;;;;;;17.88;11.18;;;;;;;9.02;76.10;99346.28;5119703;27;20038;-51
2023/10/31 03:42:54;;;;;;;17.77;9.90;;;;;;;8.98;76.07;99338.63;5119664;27;20019;-51
2023/10/31 03:45:20;;;;;;;13.93;9.43;;;;;;;8.98;75.84;99342.16;5119377;28;20092;-50
2023/10/31 03:47:45;;;;;;;17.20;9.15;;;;;;;8.92;76.37;99339.16;5119424;27;20115;-54
2023/10/31 03:50:11;;;;;;;17.08;8.40;;;;;;;8.91;76.34;99351.63;5119097;27;20050;-56
2023/10/31 03:52:36;;;;;;;12.13;8.10;;;;;;;8.90;76.58;99353.47;5119402;27;20066;-55
2023/10/31 03:55:02;;;;;;;10.25;6.93;;;;;;;8.93;76.77;99357.72;5119339;27;20026;-54
2023/10/31 03:57:29;;;;;;;12.18;6.93;;;;;;;8.99;76.77;99359.03;5115599;27;20501;-56
2023/10/31 03:59:54;;;;;;;10.25;6.30;;;;;;;9.03;76.50;99364.00;5115833;28;20123;-55
2023/10/31 04:02:20;;;;;;;12.27;6.60;;;;;;;8.99;76.46;99357.22;5116207;28;20035;-57
2023/10/31 04:04:46;;;;;;;8.23;5.95;;;;;;;9.08;76.21;99368.97;5114967;28;20027;-53
2023/10/31 04:07:11;;;;;;;11.10;6.70;;;;;;;9.11;76.55;99373.19;5114483;28;20035;-51
2023/10/31 04:09:36;;;;;;;7.95;6.45;;;;;;;9.08;75.87;99363.63;5115740;28;20031;-54
2023/10/31 04:12:02;;;;;;;8.95;6.35;;;;;;;9.15;75.91;99379.97;5116266;28;20032;-54
2023/10/31 04:14:28;;;;;;;11.45;6.45;;;;;;;9.18;76.04;99377.91;5115553;28;20023;-54
2023/10/31 04:16:53;;;;;;;9.63;6.47;;;;;;;9.20;75.57;99380.47;5115338;28;20039;-55
2023/10/31 04:19:19;;;;;;;12.40;6.47;;;;;;;9.21;75.88;99386.63;5114414;28;20038;-56
2023/10/31 04:21:44;;;;;;;11.07;6.43;;;;;;;9.21;75.81;99389.31;5115607;28;20084;-53
2023/10/31 04:24:10;;;;;;;7.70;5.97;;;;;;;9.23;75.51;99390.91;5115473;28;20039;-55
2023/10/31 04:26:35;;;;;;;12.63;5.90;;;;;;;9.21;75.67;99395.53;5114871;28;20040;-51
2023/10/31 04:29:01;;;;;;;8.77;6.22;;;;;;;9.12;75.63;99389.09;5115671;28;20458;-52
2023/10/31 04:31:26;;;;;;;9.40;6.00;;;;;;;9.16;76.03;99401.22;5114839;28;20031;-49
2023/10/31 04:33:52;;;;;;;7.88;5.50;;;;;;;9.15;75.81;99391.53;5115164;28;20081;-49
2023/10/31 04:36:18;;;;;;;7.82;5.47;;;;;;;9.18;75.91;99390.44;5115018;28;20106;-53
2023/10/31 04:38:44;;;;;;;8.02;5.30;;;;;;;9.19;75.62;99392.13;5115360;28;20074;-51
2023/10/31 04:41:09;;;;;;;8.93;5.40;;;;;;;9.20;75.72;99399.16;5115010;28;20099;-50
2023/10/31 04:43:35;;;;;;;9.05;5.30;;;;;;;9.22;75.74;99399.03;5115423;28;20024;-54
2023/10/31 04:46:00;;;;;;;8.35;5.22;;;;;;;9.23;76.13;99401.59;5115006;28;20107;-52
2023/10/31 04:48:26;;;;;;;7.55;5.35;;;;;;;9.21;75.53;99395.53;5114929;28;20195;-54
2023/10/31 04:50:51;;;;;;;9.57;5.53;;;;;;;9.33;75.47;99402.50;5115061;28;20074;-57
2023/10/31 04:53:17;;;;;;;6.85;5.13;;;;;;;9.44;75.68;99411.47;5115027;28;20058;-55
2023/10/31 04:55:42;;;;;;;10.90;4.93;;;;;;;9.31;75.30;99384.94;5115047;27;20036;-54
2023/10/31 04:58:08;;;;;;;6.75;4.70;;;;;;;9.31;74.74;99375.06;5114922;28;20425;-55
2023/10/31 05:00:33;;;;;;;6.55;5.10;;;;;;;9.60;74.83;99419.06;5114350;28;20058;-54
2023/10/31 05:03:01;;;;;;;7.32;4.80;;;;;;;9.63;74.85;99418.81;5114537;28;20086;-53
2023/10/31 05:05:26;;;;;;;7.15;4.70;;;;;;;9.67;74.65;99416.75;5114136;28;20362;-54
2023/10/31 05:07:52;;;;;;;6.68;4.72;;;;;;;9.74;74.24;99429.44;5113145;28;20046;-63
2023/10/31 05:10:17;;;;;;;7.45;4.30;;;;;;;9.76;74.02;99421.31;5114697;28;20463;-61
2023/10/31 05:12:44;;;;;;;8.43;4.82;;;;;;;9.83;73.71;99427.81;5113858;28;20081;-62
2023/10/31 05:15:10;;;;;;;7.93;4.47;;;;;;;10.08;73.63;99428.41;5114213;28;20024;-62
2023/10/31 05:17:36;;;;;;;5.05;4.30;;;;;;;10.30;72.45;99423.91;5115202;28;20032;-62
2023/10/31 05:20:02;;;;;;;5.70;4.43;;;;;;;10.54;71.40;99418.31;5114389;28;20038;-62
2023/10/31 05:22:29;;;;;;;5.93;4.43;;;;;;;10.75;70.66;99434.31;5113717;28;20051;-61
2023/10/31 05:24:55;;;;;;;6.47;4.38;;;;;;;10.80;70.38;99430.38;5113898;28;20090;-61
2023/10/31 05:27:21;;;;;;;6.60;4.25;;;;;;;10.91;69.84;99430.28;5113438;28;20475;-62
2023/10/31 05:29:46;;;;;;;5.47;4.07;;;;;;;11.01;69.64;99433.84;5113846;28;20024;-60
2023/10/31 05:32:12;;;;;;;7.63;4.40;;;;;;;11.06;68.95;99428.91;5113987;28;20031;-57
2023/10/31 05:34:37;;;;;;;6.10;4.20;;;;;;;11.13;68.71;99433.75;5113179;28;20037;-60
2023/10/31 05:37:05;;;;;;;7.25;4.05;;;;;;;11.14;68.82;99443.47;5114344;28;20028;-61
2023/10/31 05:39:31;;;;;;;4.82;4.30;;;;;;;11.08;68.85;99444.84;5114048;28;20035;-60
2023/10/31 05:41:57;;;;;;;7.75;4.30;;;;;;;11.18;68.77;99455.59;5113380;28;20111;-61
2023/10/31 05:44:22;;;;;;;6.38;4.20;;;;;;;11.31;68.27;99456.19;5114057;28;20035;-61
2023/10/31 05:46:48;;;;;;;5.05;4.13;;;;;;;11.44;67.64;99469.31;5114097;28;20032;-62
2023/10/31 05:49:13;;;;;;;7.18;4.18;;;;;;;11.53;67.62;99470.34;5114019;28;20055;-62
2023/10/31 05:51:39;;;;;;;7.10;4.40;;;;;;;11.53;67.08;99469.50;5113596;28;20073;-55
2023/10/31 05:54:07;;;;;;;4.38;3.65;;;;;;;11.52;67.39;99489.25;5112808;28;20028;-63
2023/10/31 05:56:33;;;;;;;6.47;4.03;;;;;;;11.56;67.31;99490.66;5113705;28;20032;-62
2023/10/31 05:58:59;;;;;;;6.97;4.32;;;;;;;11.63;66.94;99484.63;5113634;28;20517;-61
2023/10/31 06:01:24;;;;;;;9.02;4.75;;;;;;;11.74;66.40;99504.22;5112839;28;20028;-60
2023/10/31 06:03:50;;;;;;;6.95;4.28;;;;;;;11.74;66.24;99490.81;5111711;28;20133;-61
2023/10/31 06:06:15;;;;;;;7.13;4.00;;;;;;;11.73;66.39;99494.50;5112558;28;20033;-61
2023/10/31 06:08:41;;;;;;;6.57;4.30;;;;;;;11.78;66.28;99505.66;5112805;28;20042;-58
2023/10/31 06:11:07;;;;;;;6.55;4.57;;;;;;;11.78;66.11;99500.28;5113725;28;20031;-60
2023/10/31 06:13:33;;;;;;;7.45;4.47;;;;;;;11.85;65.95;99514.84;5113334;28;20059;-61
2023/10/31 06:16:00;;;;;;;8.30;4.80;;;;;;;11.88;66.11;99529.78;5113146;28;20110;-61
2023/10/31 06:18:26;;;;;;;10.30;4.93;;;;;;;11.86;65.93;99523.72;5113337;28;20112;-60
2023/10/31 06:20:52;;;;;;;7.20;4.85;;;;;;;11.88;66.23;99527.13;5112693;28;20442;-61
2023/10/31 06:23:18;;;;;;;8.63;4.60;;;;;;;11.88;66.26;99522.63;5112736;28;20028;-59
2023/10/31 06:25:44;;;;;;;8.23;4.75;;;;;;;11.87;66.18;99517.38;5112839;27;20179;-60
2023/10/31 06:28:10;;;;;;;8.88;4.85;;;;;;;11.95;66.18;99530.09;5113855;28;20028;-61
2023/10/31 06:30:35;;;;;;;8.32;4.97;;;;;;;11.97;66.35;99525.44;5113001;28;20042;-60
2023/10/31 06:33:01;;;;;;;7.82;4.43;;;;;;;11.99;66.35;99513.59;5113353;28;20036;-62
2023/10/31 06:35:27;;;;;;;11.77;6.18;;;;;;;12.04;66.31;99518.53;5113255;28;20023;-60
2023/10/31 06:37:56;;;;;;;12.30;6.80;;;;;;;12.08;66.16;99519.97;5113128;28;20031;-60
2023/10/31 06:40:24;;;;;;;12.77;7.55;;;;;;;12.11;66.12;99521.50;5113264;28;20043;-61
2023/10/31 06:42:49;;;;;;;12.45;6.95;;;;;;;12.16;66.23;99516.56;5113122;28;20023;-60
2023/10/31 06:45:15;;;;;;;11.32;7.07;;;;;;;12.17;66.23;99519.13;5112113;28;20024;-61
2023/10/31 06:47:41;;;;;;;9.73;7.35;;;;;;;12.29;65.93;99518.94;5112917;28;20030;-60
2023/10/31 06:50:07;;;;;;;10.15;7.32;;;;;;;12.38;65.80;99517.25;5113481;28;20059;-60
2023/10/31 06:52:33;;;;;;;11.98;7.60;;;;;;;12.54;65.36;99522.03;5112786;28;20023;-61
2023/10/31 06:54:58;;;;;;;11.05;7.50;;;;;;;12.71;64.76;99529.34;5113203;28;20034;-63
2023/10/31 06:57:24;;;;;;;11.85;7.97;;;;;;;12.94;64.34;99522.81;5112982;28;20067;-62
2023/10/31 06:59:49;;;;;;;13.00;7.80;;;;;;;13.21;63.37;99527.34;5112536;28;20035;-60
2023/10/31 07:02:15;;;;;;;13.93;8.07;;;;;;;13.45;62.70;99542.97;5112319;28;20070;-62
2023/10/31 07:04:41;;;;;;;16.20;8.43;;;;;;;13.59;62.06;99551.53;5113170;28;20118;-61
2023/10/31 07:07:06;;;;;;;9.88;7.85;;;;;;;13.66;61.81;99559.84;5112426;28;20051;-60
2023/10/31 07:09:32;;;;;;;11.98;8.23;;;;;;;13.63;61.65;99555.63;5112633;28;20454;-63
2023/10/31 07:11:57;;;;;;;12.90;8.43;;;;;;;13.53;62.18;99562.91;5109659;28;20048;-60
2023/10/31 07:14:23;;;;;;;14.60;8.57;;;;;;;13.48;62.21;99558.81;5107525;28;20119;-61
2023/10/31 07:16:49;;;;;;;12.43;8.40;;;;;;;13.43;62.44;99569.19;5108753;28;20035;-62
2023/10/31 07:19:14;;;;;;;16.05;8.88;;;;;;;13.40;62.78;99576.66;5111987;28;20029;-60
2023/10/31 07:21:40;;;;;;;13.70;9.20;;;;;;;13.33;62.68;99577.25;5111217;28;20499;-59
2023/10/31 07:24:08;;;;;;;16.55;9.13;;;;;;;13.40;62.96;99588.28;5111886;28;20028;-61
2023/10/31 07:26:35;;;;;;;14.30;8.93;;;;;;;13.41;62.79;99575.66;5110975;28;20810;-61
2023/10/31 07:29:00;;;;;;;12.15;8.60;;;;;;;13.46;62.76;99585.00;5111807;28;20118;-63
2023/10/31 07:31:26;;;;;;;16.50;9.55;;;;;;;13.30;62.85;99552.50;5113347;28;20426;-61
2023/10/31 07:33:51;;;;;;;12.07;8.80;;;;;;;13.43;63.00;99589.84;5116259;28;20425;-61
2023/10/31 07:36:17;;;;;;;14.93;8.75;;;;;;;13.30;63.22;99593.69;5115876;28;20015;-59
2023/10/31 07:38:42;;;;;;;14.40;8.32;;;;;;;13.18;63.37;99592.16;5115807;27;20370;-63
2023/10/31 07:41:09;;;;;;;14.70;9.10;;;;;;;12.98;64.18;99592.22;5115523;28;20066;-61
2023/10/31 07:43:34;;;;;;;12.45;8.70;;;;;;;12.81;64.73;99607.25;5115397;28;20376;-62
2023/10/31 07:46:00;;;;;;;12.95;9.55;;;;;;;12.71;65.27;99612.63;5115555;28;20570;-61
2023/10/31 07:48:25;;;;;;;14.55;9.80;;;;;;;12.62;65.49;99610.81;5116015;28;20031;-62
2023/10/31 07:50:51;;;;;;;15.25;9.30;;;;;;;12.60;65.56;99615.47;5115582;28;20039;-61
2023/10/31 07:53:17;;;;;;;12.57;9.35;;;;;;;12.59;65.91;99621.84;5116140;28;20023;-61
2023/10/31 07:55:43;;;;;;;11.10;8.90;;;;;;;12.20;65.75;99551.03;5116246;27;20023;-61
2023/10/31 07:58:09;;;;;;;12.45;9.05;;;;;;;12.64;65.57;99623.09;5113760;28;20110;-59
2023/10/31 08:00:35;;;;;;;12.90;8.98;;;;;;;12.68;65.63;99631.72;5104143;27;20023;-55
2023/10/31 08:03:02;;;;;;;11.13;8.70;;;;;;;12.72;65.35;99633.13;5115260;28;20104;-58
2023/10/31 08:05:28;;;;;;;11.25;8.93;;;;;;;12.78;65.47;99637.09;5114897;28;20020;-59
2023/10/31 08:07:53;;;;;;;14.80;9.55;;;;;;;12.91;65.30;99634.09;5112691;28;20520;-57
2023/10/31 08:10:19;;;;;;;14.20;9.07;;;;;;;13.11;64.52;99632.22;5114969;28;20028;-57
2023/10/31 08:12:44;;;;;;;11.85;9.02;;;;;;;13.37;63.88;99626.19;5114140;28;20035;-59
2023/10/31 08:15:10;;;;;;;15.95;9.13;;;;;;;13.80;62.52;99621.25;5114879;28;20028;-59
2023/10/31 08:17:35;;;;;;;13.63;8.68;;;;;;;14.19;61.60;99628.22;5113917;27;20576;-57
2023/10/31 08:20:03;;;;;;;11.27;7.10;;;;;;;14.53;60.28;99637.47;5113610;28;20035;-59
2023/10/31 08:22:30;;;;;;;14.13;7.32;;;;;;;14.75;59.40;99630.78;5113135;28;20032;-58
2023/10/31 08:24:55;;;;;;;9.63;7.38;;;;;;;14.95;59.18;99628.75;5114824;28;20460;-58
2023/10/31 08:27:21;;;;;;;10.60;7.07;;;;;;;15.09;58.60;99610.31;5102142;28;20036;-54
2023/10/31 08:29:47;;;;;;;10.85;6.25;;;;;;;15.28;57.71;99630.81;5115046;28;20409;-56
2023/10/31 08:32:12;;;;;;;9.27;5.68;;;;;;;15.26;57.40;99625.59;5115067;28;20366;-57
2023/10/31 08:34:38;;;;;;;10.63;5.72;;;;;;;15.10;57.65;99628.19;5114859;28;20446;-58
2023/10/31 08:37:03;;;;;;;11.95;5.53;;;;;;;14.86;58.06;99610.81;5114518;28;20063;-58
2023/10/31 08:39:30;;;;;;;7.65;5.78;;;;;;;14.66;58.52;99632.53;5114234;28;20454;-56
2023/10/31 08:41:57;;;;;;;8.40;5.57;;;;;;;14.20;59.58;99611.91;5114484;28;20047;-55
2023/10/31 08:44:23;;;;;;;8.68;5.18;;;;;;;14.10;60.04;99635.34;5113315;28;20417;-56
2023/10/31 08:46:48;;;;;;;13.85;5.47;;;;;;;13.72;60.56;99608.53;5114478;28;20036;-57
2023/10/31 08:49:15;;;;;;;9.80;5.30;;;;;;;13.71;61.35;99633.75;5115338;28;20480;-60
2023/10/31 08:51:42;;;;;;;10.43;4.70;;;;;;;13.62;61.43;99643.53;5114925;28;20129;-60
2023/10/31 08:54:08;;;;;;;8.75;4.65;;;;;;;13.50;61.77;99642.03;5113447;28;20652;-61
2023/10/31 08:56:34;;;;;;;8.57;4.72;;;;;;;13.47;61.77;99640.50;5114258;27;20036;-63
2023/10/31 08:59:00;;;;;;;6.60;4.93;;;;;;;13.47;61.85;99621.66;5113740;27;20038;-63
2023/10/31 09:01:26;;;;;;;8.60;4.95;;;;;;;13.67;61.43;99628.78;5113822;28;20445;-63
2023/10/31 09:03:52;;;;;;;12.45;4.93;;;;;;;13.70;61.11;99623.97;5113493;28;20054;-63
2023/10/31 09:06:18;;;;;;;6.70;4.80;;;;;;;13.74;61.04;99619.13;5112910;28;20434;-61
2023/10/31 09:08:44;;;;;;;7.25;4.80;;;;;;;13.80;60.69;99625.75;5112530;28;20432;-62
2023/10/31 09:11:09;;;;;;;7.15;4.45;;;;;;;13.70;61.09;99632.03;5112601;27;20118;-62
2023/10/31 09:13:35;;;;;;;5.90;4.97;;;;;;;13.70;61.45;99631.19;5093976;28;20034;-62
2023/10/31 09:16:00;;;;;;;7.20;4.95;;;;;;;13.69;61.20;99632.19;5110986;28;20029;-65
2023/10/31 09:18:26;;;;;;;7.72;4.90;;;;;;;13.75;61.16;99645.06;5111649;28;20023;-64
2023/10/31 09:20:52;;;;;;;7.97;5.22;;;;;;;13.70;61.09;99631.19;5111695;28;20024;-62
2023/10/31 09:23:18;;;;;;;7.78;5.35;;;;;;;13.74;61.09;99644.19;5111360;28;20446;-64
2023/10/31 09:25:44;;;;;;;8.70;5.75;;;;;;;13.85;60.72;99650.38;5113991;28;20519;-62
2023/10/31 09:28:10;;;;;;;8.10;5.53;;;;;;;13.61;61.11;99609.56;5112253;28;20039;-62
2023/10/31 09:30:36;;;;;;;8.85;5.00;;;;;;;13.81;60.58;99639.06;5112856;28;20035;-63
2023/10/31 09:33:01;;;;;;;9.80;4.82;;;;;;;13.72;60.79;99629.19;5113531;28;20032;-62
2023/10/31 09:35:27;;;;;;;6.53;4.75;;;;;;;13.69;60.93;99630.34;5113516;28;20035;-62
2023/10/31 09:37:53;;;;;;;9.07;4.75;;;;;;;13.66;61.10;99629.78;5112349;28;20035;-63
2023/10/31 09:40:19;;;;;;;9.38;4.93;;;;;;;13.59;61.41;99640.28;5113358;28;20031;-64
2023/10/31 09:42:45;;;;;;;10.02;5.50;;;;;;;13.39;61.72;99612.59;5113248;28;20469;-64
2023/10/31 09:45:12;;;;;;;7.03;5.53;;;;;;;13.56;61.87;99629.84;5113187;28;20439;-64
2023/10/31 09:47:38;;;;;;;7.30;5.35;;;;;;;13.58;61.83;99623.31;5113573;28;20108;-62
2023/10/31 09:50:04;;;;;;;8.10;5.40;;;;;;;13.69;61.55;99638.44;5113335;28;20380;-63
2023/10/31 09:52:30;;;;;;;8.13;5.50;;;;;;;13.69;61.29;99624.97;5112967;28;20462;-63
2023/10/31 09:54:57;;;;;;;7.35;5.50;;;;;;;13.59;61.13;99599.94;5110992;28;20107;-60
2023/10/31 09:57:22;;;;;;;7.13;5.10;;;;;;;13.87;60.97;99640.31;5113559;28;20036;-63
2023/10/31 09:59:48;;;;;;;5.57;4.88;;;;;;;13.85;60.88;99629.69;5112107;28;20127;-64
2023/10/31 10:02:14;;;;;;;7.55;4.70;;;;;;;13.83;60.78;99638.91;5113080;28;20074;-65
2023/10/31 10:04:39;;;;;;;7.35;4.57;;;;;;;13.79;60.64;99627.63;5113472;28;20032;-66
2023/10/31 10:07:05;;;;;;;7.07;4.38;;;;;;;13.83;60.94;99637.06;5113209;28;20092;-65
2023/10/31 10:09:34;;;;;;;7.97;5.00;;;;;;;13.78;60.78;99639.38;5112041;28;20076;-65
2023/10/31 10:12:01;;;;;;;7.72;4.80;;;;;;;13.75;60.76;99645.06;5112828;28;20089;-63
2023/10/31 10:14:33;;;;;;;8.52;4.68;;;;;;;13.76;60.71;99638.69;5112811;28;20039;-64
2023/10/31 10:16:59;;;;;;;8.70;5.03;;;;;;;13.83;59.74;99647.84;5112014;28;20020;-65
2023/10/31 10:19:25;;;;;;;6.72;5.15;;;;;;;13.78;60.14;99647.44;5112856;28;20449;-64
2023/10/31 10:21:56;;;;;;;6.43;5.25;;;;;;;13.87;59.85;99651.09;5112142;28;20042;-64
2023/10/31 10:24:22;;;;;;;9.00;4.90;;;;;;;13.81;59.88;99652.53;5113151;28;20042;-64
2023/10/31 10:26:49;;;;;;;7.45;5.22;;;;;;;13.51;59.98;99608.78;5112539;28;20039;-62
2023/10/31 10:29:15;;;;;;;6.28;5.18;;;;;;;13.77;60.14;99633.13;5111625;28;20063;-63
2023/10/31 10:31:42;;;;;;;9.45;5.25;;;;;;;13.69;59.79;99614.22;5113151;28;20032;-64
2023/10/31 10:34:13;;;;;;;7.47;5.38;;;;;;;13.84;60.17;99632.53;5111452;28;20886;-63
2023/10/31 10:36:38;;;;;;;6.82;5.00;;;;;;;13.77;59.53;99627.75;5112578;28;20126;-63
2023/10/31 10:39:05;;;;;;;6.43;4.68;;;;;;;13.84;59.50;99633.38;5113015;28;20442;-64
2023/10/31 10:41:34;;;;;;;7.75;5.35;;;;;;;13.82;59.76;99630.00;5112881;28;20028;-65
2023/10/31 10:44:07;;;;;;;11.10;5.28;;;;;;;13.92;59.77;99625.41;5111925;28;20043;-64
2023/10/31 10:46:35;;;;;;;8.35;5.15;;;;;;;13.81;59.65;99584.41;5112750;28;20501;-63
2023/10/31 10:49:04;;;;;;;9.60;5.15;;;;;;;13.84;59.24;99584.09;5111998;28;20030;-63
2023/10/31 10:51:53;;;;;;;6.40;4.53;;;;;;;14.00;59.38;99600.44;5112233;28;20023;-63
2023/10/31 10:54:33;;;;;;;7.28;4.63;;;;;;;13.88;59.50;99609.72;5112239;28;20498;-62
2023/10/31 10:57:15;;;;;;;6.05;4.60;;;;;;;13.61;59.65;99579.97;5112685;28;20076;-63
2023/10/31 10:59:53;;;;;;;6.20;4.53;;;;;;;13.78;59.94;99624.06;5112115;28;20114;-64
2023/10/31 11:02:19;;;;;;;10.57;4.88;;;;;;;13.81;59.49;99620.25;5112267;28;20059;-61
2023/10/31 11:04:46;;;;;;;7.40;5.30;;;;;;;13.86;59.25;99612.56;5112329;28;20066;-63
2023/10/31 11:07:12;;;;;;;7.50;5.45;;;;;;;13.95;58.77;99613.50;5115287;28;20035;-64
2023/10/31 11:09:39;;;;;;;5.95;4.90;;;;;;;14.07;58.67;99627.59;5116330;28;20032;-63
2023/10/31 11:12:06;;;;;;;9.95;5.03;;;;;;;14.01;58.39;99620.97;5116224;28;20115;-64
2023/10/31 11:14:32;;;;;;;6.60;5.18;;;;;;;13.88;58.76;99628.56;5116097;28;20035;-64
2023/10/31 11:17:04;;;;;;;7.80;5.07;;;;;;;13.76;59.02;99619.84;5116202;28;20023;-64
2023/10/31 11:19:30;;;;;;;10.65;5.95;;;;;;;13.73;59.58;99623.66;5115602;28;20038;-65
2023/10/31 11:22:01;;;;;;;7.22;5.47;;;;;;;13.76;59.67;99619.84;5116255;28;20031;-64
2023/10/31 11:24:36;;;;;;;10.25;5.68;;;;;;;13.80;60.00;99621.25;5116343;28;20442;-62
2023/10/31 11:27:04;;;;;;;8.55;5.53;;;;;;;13.80;59.77;99621.25;5116319;28;20039;-63
2023/10/31 11:29:34;;;;;;;6.25;5.30;;;;;;;13.88;59.60;99629.41;5115623;28;20031;-62